sensor_id;sensor_type;location;lat;lon;timestamp;temperature;humidity
37446;DHT22;23307;51.136;14.942;2024-01-15T00:00:40;2.70;99.90
37446;DHT22;23307;51.136;14.942;2024-01-15T00:03:06;2.70;99.90
37446;DHT22;23307;51.136;14.942;2024-01-15T00:05:32;2.70;99.90
37446;DHT22;23307;51.136;14.942;2024-01-15T00:07:57;2.70;99.90
37446;DHT22;23307;51.136;14.942;2024-01-15T00:10:23;2.70;99.90
37446;DHT22;23307;51.136;14.942;2024-01-15T00:12:49;2.70;99.90
37446;DHT22;23307;51.136;14.942;2024-01-15T00:15:15;2.70;99.90
37446;DHT22;23307;51.136;14.942;2024-01-15T00:17:40;2.70;99.90
37446;DHT22;23307;51.136;14.942;2024-01-15T00:20:06;2.70;99.90
37446;DHT22;23307;51.136;14.942;2024-01-15T00:22:32;2.70;99.90
37446;DHT22;23307;51.136;14.942;2024-01-15T00:24:58;2.70;99.90
37446;DHT22;23307;51.136;14.942;2024-01-15T00:27:23;2.70;99.90
37446;DHT22;23307;51.136;14.942;2024-01-15T00:29:49;2.70;99.90
37446;DHT22;23307;51.136;14.942;2024-01-15T00:32:16;2.70;99.90
37446;DHT22;23307;51.136;14.942;2024-01-15T00:34:41;2.70;99.90
37446;DHT22;23307;51.136;14.942;2024-01-15T00:37:07;2.60;99.90
37446;DHT22;23307;51.136;14.942;2024-01-15T00:39:33;2.50;99.90
37446;DHT22;23307;51.136;14.942;2024-01-15T00:41:58;2.50;99.90
37446;DHT22;23307;51.136;14.942;2024-01-15T00:44:24;2.50;99.90
37446;DHT22;23307;51.136;14.942;2024-01-15T00:46:49;2.50;99.90
37446;DHT22;23307;51.136;14.942;2024-01-15T00:49:15;2.40;99.90
37446;DHT22;23307;51.136;14.942;2024-01-15T00:51:41;2.40;99.90
37446;DHT22;23307;51.136;14.942;2024-01-15T00:54:07;2.40;99.90
37446;DHT22;23307;51.136;14.942;2024-01-15T00:56:32;2.40;99.90
37446;DHT22;23307;51.136;14.942;2024-01-15T00:58:58;2.50;99.90
37446;DHT22;23307;51.136;14.942;2024-01-15T01:01:23;2.50;99.90
37446;DHT22;23307;51.136;14.942;2024-01-15T01:03:49;2.40;99.90
37446;DHT22;23307;51.136;14.942;2024-01-15T01:06:14;2.40;99.90
37446;DHT22;23307;51.136;14.942;2024-01-15T01:08:40;2.40;99.90
37446;DHT22;23307;51.136;14.942;2024-01-15T01:11:05;2.30;99.90
37446;DHT22;23307;51.136;14.942;2024-01-15T01:13:32;2.30;99.90
37446;DHT22;23307;51.136;14.942;2024-01-15T01:15:58;2.30;99.90
37446;DHT22;23307;51.136;14.942;2024-01-15T01:18:23;2.40;99.90
37446;DHT22;23307;51.136;14.942;2024-01-15T01:20:49;2.40;99.90
37446;DHT22;23307;51.136;14.942;2024-01-15T01:23:14;2.40;99.90
37446;DHT22;23307;51.136;14.942;2024-01-15T01:25:40;2.40;99.90
37446;DHT22;23307;51.136;14.942;2024-01-15T01:28:05;2.50;99.90
37446;DHT22;23307;51.136;14.942;2024-01-15T01:30:31;2.50;99.90
37446;DHT22;23307;51.136;14.942;2024-01-15T01:32:56;2.50;99.90
37446;DHT22;23307;51.136;14.942;2024-01-15T01:35:22;2.40;99.90
37446;DHT22;23307;51.136;14.942;2024-01-15T01:37:48;2.40;99.90
37446;DHT22;23307;51.136;14.942;2024-01-15T01:40:13;2.40;99.90
37446;DHT22;23307;51.136;14.942;2024-01-15T01:42:39;2.50;99.90
37446;DHT22;23307;51.136;14.942;2024-01-15T01:45:05;2.50;99.90
37446;DHT22;23307;51.136;14.942;2024-01-15T01:47:31;2.50;99.90
37446;DHT22;23307;51.136;14.942;2024-01-15T01:49:57;2.50;99.90
37446;DHT22;23307;51.136;14.942;2024-01-15T01:52:23;2.50;99.90
37446;DHT22;23307;51.136;14.942;2024-01-15T01:54:48;2.50;99.90
37446;DHT22;23307;51.136;14.942;2024-01-15T01:57:15;2.50;99.90
37446;DHT22;23307;51.136;14.942;2024-01-15T01:59:42;2.50;99.90
37446;DHT22;23307;51.136;14.942;2024-01-15T02:02:07;2.50;99.90
37446;DHT22;23307;51.136;14.942;2024-01-15T02:04:33;2.50;99.90
37446;DHT22;23307;51.136;14.942;2024-01-15T02:06:59;2.50;99.90
37446;DHT22;23307;51.136;14.942;2024-01-15T02:09:25;2.50;99.90
37446;DHT22;23307;51.136;14.942;2024-01-15T02:11:51;2.50;99.90
37446;DHT22;23307;51.136;14.942;2024-01-15T02:14:16;2.50;99.90
37446;DHT22;23307;51.136;14.942;2024-01-15T02:16:43;2.50;99.90
37446;DHT22;23307;51.136;14.942;2024-01-15T02:19:15;2.50;99.90
37446;DHT22;23307;51.136;14.942;2024-01-15T02:21:41;2.50;99.90
37446;DHT22;23307;51.136;14.942;2024-01-15T02:24:06;2.50;99.90
37446;DHT22;23307;51.136;14.942;2024-01-15T02:26:32;2.50;99.90
37446;DHT22;23307;51.136;14.942;2024-01-15T02:29:01;2.50;99.90
37446;DHT22;23307;51.136;14.942;2024-01-15T02:31:27;2.50;99.90
37446;DHT22;23307;51.136;14.942;2024-01-15T02:33:52;2.50;99.90
37446;DHT22;23307;51.136;14.942;2024-01-15T02:36:18;2.50;99.90
37446;DHT22;23307;51.136;14.942;2024-01-15T02:38:43;2.50;99.90
37446;DHT22;23307;51.136;14.942;2024-01-15T02:41:09;2.50;99.90
37446;DHT22;23307;51.136;14.942;2024-01-15T02:43:34;2.50;99.90
37446;DHT22;23307;51.136;14.942;2024-01-15T02:46:00;2.50;99.90
37446;DHT22;23307;51.136;14.942;2024-01-15T02:48:25;2.50;99.90
37446;DHT22;23307;51.136;14.942;2024-01-15T02:50:51;2.50;99.90
37446;DHT22;23307;51.136;14.942;2024-01-15T02:53:16;2.50;99.90
37446;DHT22;23307;51.136;14.942;2024-01-15T02:55:42;2.50;99.90
37446;DHT22;23307;51.136;14.942;2024-01-15T02:58:07;2.50;99.90
37446;DHT22;23307;51.136;14.942;2024-01-15T03:00:33;2.50;99.90
37446;DHT22;23307;51.136;14.942;2024-01-15T03:02:58;2.50;99.90
37446;DHT22;23307;51.136;14.942;2024-01-15T03:05:24;2.50;99.90
37446;DHT22;23307;51.136;14.942;2024-01-15T03:07:50;2.50;99.90
37446;DHT22;23307;51.136;14.942;2024-01-15T03:10:15;2.50;99.90
37446;DHT22;23307;51.136;14.942;2024-01-15T03:12:41;2.50;99.90
37446;DHT22;23307;51.136;14.942;2024-01-15T03:15:06;2.50;99.90
37446;DHT22;23307;51.136;14.942;2024-01-15T03:17:32;2.50;99.90
37446;DHT22;23307;51.136;14.942;2024-01-15T03:19:57;2.50;99.90
37446;DHT22;23307;51.136;14.942;2024-01-15T03:22:23;2.50;99.90
37446;DHT22;23307;51.136;14.942;2024-01-15T03:24:48;2.50;99.90
37446;DHT22;23307;51.136;14.942;2024-01-15T03:27:14;2.50;99.90
37446;DHT22;23307;51.136;14.942;2024-01-15T03:29:40;2.50;99.90
37446;DHT22;23307;51.136;14.942;2024-01-15T03:32:06;2.50;99.90
37446;DHT22;23307;51.136;14.942;2024-01-15T03:34:31;2.50;99.90
37446;DHT22;23307;51.136;14.942;2024-01-15T03:36:57;2.50;99.90
37446;DHT22;23307;51.136;14.942;2024-01-15T03:39:24;2.40;99.90
37446;DHT22;23307;51.136;14.942;2024-01-15T03:41:49;2.40;99.90
37446;DHT22;23307;51.136;14.942;2024-01-15T03:44:15;2.40;99.90
37446;DHT22;23307;51.136;14.942;2024-01-15T03:46:40;2.30;99.90
37446;DHT22;23307;51.136;14.942;2024-01-15T03:49:06;2.30;99.90
37446;DHT22;23307;51.136;14.942;2024-01-15T03:51:31;2.30;99.90
37446;DHT22;23307;51.136;14.942;2024-01-15T03:53:57;2.20;99.90
37446;DHT22;23307;51.136;14.942;2024-01-15T03:56:22;2.20;99.90
37446;DHT22;23307;51.136;14.942;2024-01-15T03:58:47;2.20;99.90
37446;DHT22;23307;51.136;14.942;2024-01-15T04:01:13;2.20;99.90
37446;DHT22;23307;51.136;14.942;2024-01-15T04:03:38;2.20;99.90
37446;DHT22;23307;51.136;14.942;2024-01-15T04:06:04;2.20;99.90
37446;DHT22;23307;51.136;14.942;2024-01-15T04:08:30;2.20;99.90
37446;DHT22;23307;51.136;14.942;2024-01-15T04:10:55;2.20;99.90
37446;DHT22;23307;51.136;14.942;2024-01-15T04:13:21;2.20;99.90
37446;DHT22;23307;51.136;14.942;2024-01-15T04:15:47;2.20;99.90
37446;DHT22;23307;51.136;14.942;2024-01-15T04:18:12;2.10;99.90
37446;DHT22;23307;51.136;14.942;2024-01-15T04:20:38;2.20;99.90
37446;DHT22;23307;51.136;14.942;2024-01-15T04:23:04;2.20;99.90
37446;DHT22;23307;51.136;14.942;2024-01-15T04:25:29;2.10;99.90
37446;DHT22;23307;51.136;14.942;2024-01-15T04:27:55;2.20;99.90
37446;DHT22;23307;51.136;14.942;2024-01-15T04:30:20;2.20;99.90
37446;DHT22;23307;51.136;14.942;2024-01-15T04:32:46;2.10;99.90
37446;DHT22;23307;51.136;14.942;2024-01-15T04:35:11;2.10;99.90
37446;DHT22;23307;51.136;14.942;2024-01-15T04:37:38;2.10;99.90
37446;DHT22;23307;51.136;14.942;2024-01-15T04:40:05;2.10;99.90
37446;DHT22;23307;51.136;14.942;2024-01-15T04:42:30;2.10;99.90
37446;DHT22;23307;51.136;14.942;2024-01-15T04:44:56;2.10;99.90
37446;DHT22;23307;51.136;14.942;2024-01-15T04:47:21;2.10;99.90
37446;DHT22;23307;51.136;14.942;2024-01-15T04:49:47;2.20;99.90
37446;DHT22;23307;51.136;14.942;2024-01-15T04:52:14;2.10;99.90
37446;DHT22;23307;51.136;14.942;2024-01-15T04:54:40;2.10;99.90
37446;DHT22;23307;51.136;14.942;2024-01-15T04:57:05;2.10;99.90
37446;DHT22;23307;51.136;14.942;2024-01-15T04:59:31;2.10;99.90
37446;DHT22;23307;51.136;14.942;2024-01-15T05:01:56;2.10;99.90
37446;DHT22;23307;51.136;14.942;2024-01-15T05:04:22;2.10;99.90
37446;DHT22;23307;51.136;14.942;2024-01-15T05:06:47;2.10;99.90
37446;DHT22;23307;51.136;14.942;2024-01-15T05:09:13;2.10;99.90
37446;DHT22;23307;51.136;14.942;2024-01-15T05:11:39;2.10;99.90
37446;DHT22;23307;51.136;14.942;2024-01-15T05:14:04;2.10;99.90
37446;DHT22;23307;51.136;14.942;2024-01-15T05:16:30;2.10;99.90
37446;DHT22;23307;51.136;14.942;2024-01-15T05:18:55;2.00;99.90
37446;DHT22;23307;51.136;14.942;2024-01-15T05:21:21;2.10;99.90
37446;DHT22;23307;51.136;14.942;2024-01-15T05:23:46;2.00;99.90
37446;DHT22;23307;51.136;14.942;2024-01-15T05:26:12;2.00;99.90
37446;DHT22;23307;51.136;14.942;2024-01-15T05:28:37;2.00;99.90
37446;DHT22;23307;51.136;14.942;2024-01-15T05:31:03;2.00;99.90
37446;DHT22;23307;51.136;14.942;2024-01-15T05:33:29;2.00;99.90
37446;DHT22;23307;51.136;14.942;2024-01-15T05:35:55;2.00;99.90
37446;DHT22;23307;51.136;14.942;2024-01-15T05:38:21;2.00;99.90
37446;DHT22;23307;51.136;14.942;2024-01-15T05:40:46;2.00;99.90
37446;DHT22;23307;51.136;14.942;2024-01-15T05:43:12;2.00;99.90
37446;DHT22;23307;51.136;14.942;2024-01-15T05:45:38;2.10;99.90
37446;DHT22;23307;51.136;14.942;2024-01-15T05:48:05;2.00;99.90
37446;DHT22;23307;51.136;14.942;2024-01-15T05:50:30;2.10;99.90
37446;DHT22;23307;51.136;14.942;2024-01-15T05:52:56;2.00;99.90
37446;DHT22;23307;51.136;14.942;2024-01-15T05:55:21;2.00;99.90
37446;DHT22;23307;51.136;14.942;2024-01-15T05:57:47;2.00;99.90
37446;DHT22;23307;51.136;14.942;2024-01-15T06:00:13;2.00;99.90
37446;DHT22;23307;51.136;14.942;2024-01-15T06:02:39;2.00;99.90
37446;DHT22;23307;51.136;14.942;2024-01-15T06:05:05;1.90;99.90
37446;DHT22;23307;51.136;14.942;2024-01-15T06:07:31;1.90;99.90
37446;DHT22;23307;51.136;14.942;2024-01-15T06:09:57;1.90;99.90
37446;DHT22;23307;51.136;14.942;2024-01-15T06:12:23;1.90;99.90
37446;DHT22;23307;51.136;14.942;2024-01-15T06:14:48;1.90;99.90
37446;DHT22;23307;51.136;14.942;2024-01-15T06:17:14;1.90;99.90
37446;DHT22;23307;51.136;14.942;2024-01-15T06:19:39;1.80;99.90
37446;DHT22;23307;51.136;14.942;2024-01-15T06:22:05;1.80;99.90
37446;DHT22;23307;51.136;14.942;2024-01-15T06:24:30;1.90;99.90
37446;DHT22;23307;51.136;14.942;2024-01-15T06:26:56;1.90;99.90
37446;DHT22;23307;51.136;14.942;2024-01-15T06:29:21;1.90;99.90
37446;DHT22;23307;51.136;14.942;2024-01-15T06:31:47;1.90;99.90
37446;DHT22;23307;51.136;14.942;2024-01-15T06:34:12;1.90;99.90
37446;DHT22;23307;51.136;14.942;2024-01-15T06:36:38;1.90;99.90
37446;DHT22;23307;51.136;14.942;2024-01-15T06:39:03;1.90;99.90
37446;DHT22;23307;51.136;14.942;2024-01-15T06:41:29;1.90;99.90
37446;DHT22;23307;51.136;14.942;2024-01-15T06:43:54;1.90;99.90
37446;DHT22;23307;51.136;14.942;2024-01-15T06:46:21;1.90;99.90
37446;DHT22;23307;51.136;14.942;2024-01-15T06:48:47;1.90;99.90
37446;DHT22;23307;51.136;14.942;2024-01-15T06:51:15;1.90;99.90
37446;DHT22;23307;51.136;14.942;2024-01-15T06:53:40;1.90;99.90
37446;DHT22;23307;51.136;14.942;2024-01-15T06:56:06;1.90;99.90
37446;DHT22;23307;51.136;14.942;2024-01-15T06:58:32;1.90;99.90
37446;DHT22;23307;51.136;14.942;2024-01-15T07:00:57;1.90;99.90
37446;DHT22;23307;51.136;14.942;2024-01-15T07:03:23;1.90;99.90
37446;DHT22;23307;51.136;14.942;2024-01-15T07:05:48;1.90;99.90
37446;DHT22;23307;51.136;14.942;2024-01-15T07:08:14;1.90;99.90
37446;DHT22;23307;51.136;14.942;2024-01-15T07:10:40;1.90;99.90
37446;DHT22;23307;51.136;14.942;2024-01-15T07:13:05;1.90;99.90
37446;DHT22;23307;51.136;14.942;2024-01-15T07:15:31;1.90;99.90
37446;DHT22;23307;51.136;14.942;2024-01-15T07:17:56;1.90;99.90
37446;DHT22;23307;51.136;14.942;2024-01-15T07:20:22;1.90;99.90
37446;DHT22;23307;51.136;14.942;2024-01-15T07:22:47;1.90;99.90
37446;DHT22;23307;51.136;14.942;2024-01-15T07:25:13;1.90;99.90
37446;DHT22;23307;51.136;14.942;2024-01-15T07:27:38;1.90;99.90
37446;DHT22;23307;51.136;14.942;2024-01-15T07:30:04;1.90;99.90
37446;DHT22;23307;51.136;14.942;2024-01-15T07:32:31;1.90;99.90
37446;DHT22;23307;51.136;14.942;2024-01-15T07:34:57;1.90;99.90
37446;DHT22;23307;51.136;14.942;2024-01-15T07:37:24;1.90;99.90
37446;DHT22;23307;51.136;14.942;2024-01-15T07:39:50;1.90;99.90
37446;DHT22;23307;51.136;14.942;2024-01-15T07:42:16;1.80;99.90
37446;DHT22;23307;51.136;14.942;2024-01-15T07:44:41;1.80;99.90
37446;DHT22;23307;51.136;14.942;2024-01-15T07:47:06;1.90;99.90
37446;DHT22;23307;51.136;14.942;2024-01-15T07:49:34;1.90;99.90
37446;DHT22;23307;51.136;14.942;2024-01-15T07:52:00;1.90;99.90
37446;DHT22;23307;51.136;14.942;2024-01-15T07:54:25;1.90;99.90
37446;DHT22;23307;51.136;14.942;2024-01-15T07:56:57;1.90;99.90
37446;DHT22;23307;51.136;14.942;2024-01-15T07:59:23;1.90;99.90
37446;DHT22;23307;51.136;14.942;2024-01-15T08:01:49;1.90;99.90
37446;DHT22;23307;51.136;14.942;2024-01-15T08:04:15;1.90;99.90
37446;DHT22;23307;51.136;14.942;2024-01-15T08:06:40;1.90;99.90
37446;DHT22;23307;51.136;14.942;2024-01-15T08:09:06;1.90;99.90
37446;DHT22;23307;51.136;14.942;2024-01-15T08:11:31;1.80;99.90
37446;DHT22;23307;51.136;14.942;2024-01-15T08:13:57;1.80;99.90
37446;DHT22;23307;51.136;14.942;2024-01-15T08:16:22;1.90;99.90
37446;DHT22;23307;51.136;14.942;2024-01-15T08:18:49;1.90;99.90
37446;DHT22;23307;51.136;14.942;2024-01-15T08:21:15;1.90;99.90
37446;DHT22;23307;51.136;14.942;2024-01-15T08:23:40;1.90;99.90
37446;DHT22;23307;51.136;14.942;2024-01-15T08:26:07;1.90;99.90
37446;DHT22;23307;51.136;14.942;2024-01-15T08:28:32;1.90;99.90
37446;DHT22;23307;51.136;14.942;2024-01-15T08:30:58;1.90;99.90
37446;DHT22;23307;51.136;14.942;2024-01-15T08:33:23;1.90;99.90
37446;DHT22;23307;51.136;14.942;2024-01-15T08:35:49;1.90;99.90
37446;DHT22;23307;51.136;14.942;2024-01-15T08:38:14;1.80;99.90
37446;DHT22;23307;51.136;14.942;2024-01-15T08:40:40;1.80;99.90
37446;DHT22;23307;51.136;14.942;2024-01-15T08:43:05;1.80;99.90
37446;DHT22;23307;51.136;14.942;2024-01-15T08:45:32;1.80;99.90
37446;DHT22;23307;51.136;14.942;2024-01-15T08:47:58;1.90;99.90
37446;DHT22;23307;51.136;14.942;2024-01-15T08:50:23;1.90;99.90
37446;DHT22;23307;51.136;14.942;2024-01-15T08:52:49;1.90;99.90
37446;DHT22;23307;51.136;14.942;2024-01-15T08:55:14;1.90;99.90
37446;DHT22;23307;51.136;14.942;2024-01-15T08:57:40;1.90;99.90
37446;DHT22;23307;51.136;14.942;2024-01-15T09:00:06;1.90;99.90
37446;DHT22;23307;51.136;14.942;2024-01-15T09:02:34;1.90;99.90
37446;DHT22;23307;51.136;14.942;2024-01-15T09:05:00;1.90;99.90
37446;DHT22;23307;51.136;14.942;2024-01-15T09:07:26;2.00;99.90
37446;DHT22;23307;51.136;14.942;2024-01-15T09:09:52;2.00;99.90
37446;DHT22;23307;51.136;14.942;2024-01-15T09:12:18;1.90;99.90
37446;DHT22;23307;51.136;14.942;2024-01-15T09:14:44;2.00;99.90
37446;DHT22;23307;51.136;14.942;2024-01-15T09:17:09;2.00;99.90
37446;DHT22;23307;51.136;14.942;2024-01-15T09:19:35;2.10;99.90
37446;DHT22;23307;51.136;14.942;2024-01-15T09:22:00;2.10;99.90
37446;DHT22;23307;51.136;14.942;2024-01-15T09:24:26;2.10;99.90
37446;DHT22;23307;51.136;14.942;2024-01-15T09:26:51;2.20;99.90
37446;DHT22;23307;51.136;14.942;2024-01-15T09:29:17;2.20;99.90
37446;DHT22;23307;51.136;14.942;2024-01-15T09:31:43;2.30;99.90
37446;DHT22;23307;51.136;14.942;2024-01-15T09:34:09;2.30;99.90
37446;DHT22;23307;51.136;14.942;2024-01-15T09:36:40;2.30;99.90
37446;DHT22;23307;51.136;14.942;2024-01-15T09:39:06;2.30;99.90
37446;DHT22;23307;51.136;14.942;2024-01-15T09:41:37;2.40;99.90
37446;DHT22;23307;51.136;14.942;2024-01-15T09:44:03;2.40;99.90
37446;DHT22;23307;51.136;14.942;2024-01-15T09:46:33;2.40;99.90
37446;DHT22;23307;51.136;14.942;2024-01-15T09:49:00;2.40;99.90
37446;DHT22;23307;51.136;14.942;2024-01-15T09:51:25;2.40;99.90
37446;DHT22;23307;51.136;14.942;2024-01-15T09:53:51;2.40;99.90
37446;DHT22;23307;51.136;14.942;2024-01-15T09:56:17;2.40;99.90
37446;DHT22;23307;51.136;14.942;2024-01-15T09:58:43;2.40;99.90
37446;DHT22;23307;51.136;14.942;2024-01-15T10:01:09;2.40;99.90
37446;DHT22;23307;51.136;14.942;2024-01-15T10:03:36;2.40;99.90
37446;DHT22;23307;51.136;14.942;2024-01-15T10:06:03;2.50;99.90
37446;DHT22;23307;51.136;14.942;2024-01-15T10:08:29;2.40;99.90
37446;DHT22;23307;51.136;14.942;2024-01-15T10:10:55;2.50;99.90
37446;DHT22;23307;51.136;14.942;2024-01-15T10:13:21;2.50;99.90
37446;DHT22;23307;51.136;14.942;2024-01-15T10:15:47;2.60;99.90
37446;DHT22;23307;51.136;14.942;2024-01-15T10:18:13;2.60;99.90
37446;DHT22;23307;51.136;14.942;2024-01-15T10:20:39;2.50;99.90
37446;DHT22;23307;51.136;14.942;2024-01-15T10:23:05;2.50;99.90
37446;DHT22;23307;51.136;14.942;2024-01-15T10:25:30;2.50;99.90
37446;DHT22;23307;51.136;14.942;2024-01-15T10:28:03;2.60;99.90
37446;DHT22;23307;51.136;14.942;2024-01-15T10:30:30;2.60;99.90
37446;DHT22;23307;51.136;14.942;2024-01-15T10:32:58;2.60;99.90
37446;DHT22;23307;51.136;14.942;2024-01-15T10:35:30;2.70;99.90
37446;DHT22;23307;51.136;14.942;2024-01-15T10:37:56;2.60;99.90
37446;DHT22;23307;51.136;14.942;2024-01-15T10:40:21;2.60;99.90
37446;DHT22;23307;51.136;14.942;2024-01-15T10:42:47;2.70;99.90
37446;DHT22;23307;51.136;14.942;2024-01-15T10:45:13;2.70;99.90
37446;DHT22;23307;51.136;14.942;2024-01-15T10:47:40;2.70;99.90
37446;DHT22;23307;51.136;14.942;2024-01-15T10:50:06;2.70;99.90
37446;DHT22;23307;51.136;14.942;2024-01-15T10:52:36;2.70;99.90
37446;DHT22;23307;51.136;14.942;2024-01-15T10:55:03;2.70;99.90
37446;DHT22;23307;51.136;14.942;2024-01-15T10:57:30;2.70;99.90
37446;DHT22;23307;51.136;14.942;2024-01-15T10:59:55;2.70;99.90
37446;DHT22;23307;51.136;14.942;2024-01-15T11:02:21;2.80;99.90
37446;DHT22;23307;51.136;14.942;2024-01-15T11:04:46;2.80;99.90
37446;DHT22;23307;51.136;14.942;2024-01-15T11:07:13;2.80;99.90
37446;DHT22;23307;51.136;14.942;2024-01-15T11:09:39;2.80;99.90
37446;DHT22;23307;51.136;14.942;2024-01-15T11:12:10;2.80;99.90
37446;DHT22;23307;51.136;14.942;2024-01-15T11:14:40;2.80;99.90
37446;DHT22;23307;51.136;14.942;2024-01-15T11:17:05;2.70;99.90
37446;DHT22;23307;51.136;14.942;2024-01-15T11:19:38;2.70;99.90
37446;DHT22;23307;51.136;14.942;2024-01-15T11:22:06;2.70;99.90
37446;DHT22;23307;51.136;14.942;2024-01-15T11:24:39;2.70;99.90
37446;DHT22;23307;51.136;14.942;2024-01-15T11:27:06;2.70;99.90
37446;DHT22;23307;51.136;14.942;2024-01-15T11:29:34;2.70;99.90
37446;DHT22;23307;51.136;14.942;2024-01-15T11:32:09;2.70;99.90
37446;DHT22;23307;51.136;14.942;2024-01-15T11:35:00;2.70;99.90
37446;DHT22;23307;51.136;14.942;2024-01-15T11:37:28;2.80;99.90
37446;DHT22;23307;51.136;14.942;2024-01-15T11:39:56;2.80;99.90
37446;DHT22;23307;51.136;14.942;2024-01-15T11:42:25;2.90;99.90
37446;DHT22;23307;51.136;14.942;2024-01-15T11:44:53;2.90;99.90
37446;DHT22;23307;51.136;14.942;2024-01-15T11:50:06;2.90;99.90
37446;DHT22;23307;51.136;14.942;2024-01-15T11:52:36;3.00;99.90
37446;DHT22;23307;51.136;14.942;2024-01-15T11:55:12;3.10;99.90
37446;DHT22;23307;51.136;14.942;2024-01-15T11:57:40;3.10;99.90
37446;DHT22;23307;51.136;14.942;2024-01-15T12:00:09;3.10;99.90
37446;DHT22;23307;51.136;14.942;2024-01-15T12:02:34;3.20;99.90
37446;DHT22;23307;51.136;14.942;2024-01-15T12:05:00;3.10;99.90
37446;DHT22;23307;51.136;14.942;2024-01-15T12:07:26;3.10;99.90
37446;DHT22;23307;51.136;14.942;2024-01-15T12:09:51;3.10;99.90
37446;DHT22;23307;51.136;14.942;2024-01-15T12:12:26;3.10;99.90
37446;DHT22;23307;51.136;14.942;2024-01-15T12:14:54;3.10;99.90
37446;DHT22;23307;51.136;14.942;2024-01-15T12:17:20;3.00;99.90
37446;DHT22;23307;51.136;14.942;2024-01-15T12:19:45;3.00;99.90
37446;DHT22;23307;51.136;14.942;2024-01-15T12:22:11;3.00;99.90
37446;DHT22;23307;51.136;14.942;2024-01-15T12:24:36;3.00;99.90
37446;DHT22;23307;51.136;14.942;2024-01-15T12:27:02;3.10;99.90
37446;DHT22;23307;51.136;14.942;2024-01-15T12:29:28;3.10;99.90
37446;DHT22;23307;51.136;14.942;2024-01-15T12:31:53;3.10;99.90
37446;DHT22;23307;51.136;14.942;2024-01-15T12:34:19;3.10;99.90
37446;DHT22;23307;51.136;14.942;2024-01-15T12:36:46;3.10;99.90
37446;DHT22;23307;51.136;14.942;2024-01-15T12:39:12;3.20;99.90
37446;DHT22;23307;51.136;14.942;2024-01-15T12:41:38;3.20;99.90
37446;DHT22;23307;51.136;14.942;2024-01-15T12:44:04;3.30;99.90
37446;DHT22;23307;51.136;14.942;2024-01-15T12:46:30;3.30;99.90
37446;DHT22;23307;51.136;14.942;2024-01-15T12:48:56;3.20;99.90
37446;DHT22;23307;51.136;14.942;2024-01-15T12:51:25;3.30;99.90
37446;DHT22;23307;51.136;14.942;2024-01-15T12:53:51;3.30;99.90
37446;DHT22;23307;51.136;14.942;2024-01-15T12:56:17;3.30;99.90
37446;DHT22;23307;51.136;14.942;2024-01-15T12:58:42;3.30;99.90
37446;DHT22;23307;51.136;14.942;2024-01-15T13:01:08;3.30;99.90
37446;DHT22;23307;51.136;14.942;2024-01-15T13:03:33;3.30;99.90
37446;DHT22;23307;51.136;14.942;2024-01-15T13:05:59;3.30;99.90
37446;DHT22;23307;51.136;14.942;2024-01-15T13:08:24;3.30;99.90
37446;DHT22;23307;51.136;14.942;2024-01-15T13:10:52;3.30;99.90
37446;DHT22;23307;51.136;14.942;2024-01-15T13:13:21;3.30;99.90
37446;DHT22;23307;51.136;14.942;2024-01-15T13:15:47;3.30;99.90
37446;DHT22;23307;51.136;14.942;2024-01-15T13:18:12;3.20;99.90
37446;DHT22;23307;51.136;14.942;2024-01-15T13:20:38;3.20;99.90
37446;DHT22;23307;51.136;14.942;2024-01-15T13:23:03;3.20;99.90
37446;DHT22;23307;51.136;14.942;2024-01-15T13:25:29;3.10;99.90
37446;DHT22;23307;51.136;14.942;2024-01-15T13:27:55;3.00;99.90
37446;DHT22;23307;51.136;14.942;2024-01-15T13:30:20;3.10;99.90
37446;DHT22;23307;51.136;14.942;2024-01-15T13:32:46;3.00;99.90
37446;DHT22;23307;51.136;14.942;2024-01-15T13:35:12;3.00;99.90
37446;DHT22;23307;51.136;14.942;2024-01-15T13:37:39;3.00;99.90
37446;DHT22;23307;51.136;14.942;2024-01-15T13:40:07;2.90;99.90
37446;DHT22;23307;51.136;14.942;2024-01-15T13:42:35;2.90;99.90
37446;DHT22;23307;51.136;14.942;2024-01-15T13:45:04;2.80;99.90
37446;DHT22;23307;51.136;14.942;2024-01-15T13:47:31;2.80;99.90
37446;DHT22;23307;51.136;14.942;2024-01-15T13:49:57;2.80;99.90
37446;DHT22;23307;51.136;14.942;2024-01-15T13:52:23;2.80;99.90
37446;DHT22;23307;51.136;14.942;2024-01-15T13:54:49;2.80;99.90
37446;DHT22;23307;51.136;14.942;2024-01-15T13:57:15;2.80;99.90
37446;DHT22;23307;51.136;14.942;2024-01-15T13:59:40;2.70;99.90
37446;DHT22;23307;51.136;14.942;2024-01-15T14:02:06;2.70;99.90
37446;DHT22;23307;51.136;14.942;2024-01-15T14:04:31;2.70;99.90
37446;DHT22;23307;51.136;14.942;2024-01-15T14:06:57;2.70;99.90
37446;DHT22;23307;51.136;14.942;2024-01-15T14:09:22;2.70;99.90
37446;DHT22;23307;51.136;14.942;2024-01-15T14:11:48;2.70;99.90
37446;DHT22;23307;51.136;14.942;2024-01-15T14:14:14;2.60;99.90
37446;DHT22;23307;51.136;14.942;2024-01-15T14:16:40;2.60;99.90
37446;DHT22;23307;51.136;14.942;2024-01-15T14:19:05;2.60;99.90
37446;DHT22;23307;51.136;14.942;2024-01-15T14:21:35;2.60;99.90
37446;DHT22;23307;51.136;14.942;2024-01-15T14:24:00;2.50;99.90
37446;DHT22;23307;51.136;14.942;2024-01-15T14:26:26;2.40;99.90
37446;DHT22;23307;51.136;14.942;2024-01-15T14:28:54;2.40;99.90
37446;DHT22;23307;51.136;14.942;2024-01-15T14:31:20;2.40;99.90
37446;DHT22;23307;51.136;14.942;2024-01-15T14:33:46;2.30;99.90
37446;DHT22;23307;51.136;14.942;2024-01-15T14:36:11;2.30;99.90
37446;DHT22;23307;51.136;14.942;2024-01-15T14:38:37;2.30;99.90
37446;DHT22;23307;51.136;14.942;2024-01-15T14:41:02;2.30;99.90
37446;DHT22;23307;51.136;14.942;2024-01-15T14:43:28;2.30;99.90
37446;DHT22;23307;51.136;14.942;2024-01-15T14:45:53;2.30;99.90
37446;DHT22;23307;51.136;14.942;2024-01-15T14:48:19;2.30;99.90
37446;DHT22;23307;51.136;14.942;2024-01-15T14:50:44;2.30;99.90
37446;DHT22;23307;51.136;14.942;2024-01-15T14:53:10;2.30;99.90
37446;DHT22;23307;51.136;14.942;2024-01-15T14:55:35;2.30;99.90
37446;DHT22;23307;51.136;14.942;2024-01-15T14:58:01;2.30;99.90
37446;DHT22;23307;51.136;14.942;2024-01-15T15:00:26;2.30;99.90
37446;DHT22;23307;51.136;14.942;2024-01-15T15:02:52;2.20;99.90
37446;DHT22;23307;51.136;14.942;2024-01-15T15:05:17;2.20;99.90
37446;DHT22;23307;51.136;14.942;2024-01-15T15:07:43;2.10;99.90
37446;DHT22;23307;51.136;14.942;2024-01-15T15:10:09;2.10;99.90
37446;DHT22;23307;51.136;14.942;2024-01-15T15:12:36;2.00;99.90
37446;DHT22;23307;51.136;14.942;2024-01-15T15:15:02;2.00;99.90
37446;DHT22;23307;51.136;14.942;2024-01-15T15:17:27;1.90;99.90
37446;DHT22;23307;51.136;14.942;2024-01-15T15:19:53;1.90;99.90
37446;DHT22;23307;51.136;14.942;2024-01-15T15:22:19;1.90;99.90
37446;DHT22;23307;51.136;14.942;2024-01-15T15:24:45;2.00;99.90